Impacts TAF Board INFO
FOR SITUATIONAL AWARENESS. NOT TO BE USED FOR FLIGHT PLANNING PURPOSES.
IDs:

KCLT - Charlotte/Douglas In, NC, US

Issued at 2157 UTC 25 May 2018
Updated at 2224 UTC 25 May 2018
Potential Impact None Slight Moderate High
Time2152Z 25/23Z 26/00Z 26/01Z 26/02Z 26/03Z 26/04Z 26/05Z 26/06Z 26/07Z 26/08Z 26/09Z 26/10Z 26/11Z>>
Type OBS PRVL
  [TEMP]  
PRVL PRVL PRVL PRVL PRVL PRVL PRVL PRVL PRVL PRVL PRVL PRVL
VIS 10 >6
  [4]  
>6 >6 >6 >6 >6 >6 >6 >6 >6 >6 4 4
CIG 75 60
  [25]  
20 20 20 10 10 10 10 10 10 10 10 10
Cover BKN BKN
  [OVC]  
OVC OVC OVC BKN BKN BKN BKN BKN BKN BKN OVC OVC
FltCat VFR VFR
  [MVFR]  
MVFR MVFR MVFR MVFR MVFR MVFR MVFR MVFR MVFR MVFR MVFR MVFR
WX -- VCSH
  [TSRA BR]  
VCSH VCSH VCSH -- -- -- -- -- -- -- BR BR
WDir 310 260
[260]
180 180 180 170 170 170 170 170 170 170 180 180
WSpd 4 6
  [6]  
5 5 5 4 4 4 4 4 4 4 5 5
WGst -- --
  [--]  
-- -- -- -- -- -- -- -- -- -- -- --

Raw TAF
KCLT 252157Z 2522/2624 26006KT P6SM VCSH SCT025 BKN060
  TEMPO 2522/2524 4SM TSRA BR OVC025CB
  FM260000 18005KT P6SM VCSH OVC020
  FM260300 17004KT P6SM BKN010
  FM261000 18005KT 4SM BR OVC010
  FM261400 20006KT P6SM OVC008
  FM261900 20008KT P6SM BKN035
  PROB30 2619/2624 4SM -TSRA OVC025CB


Raw METAR
KCLT 252152Z 31004KT 10SM SCT025TCU BKN075 BKN110 BKN250 24/22 A3003 RMK TCU E AND DSNT SE-SW SLP161 T02440222
KCLT 252052Z 28005KT 10SM FEW027 SCT110 BKN250 24/22 A3003 RMK TCU DSNT NE AND SE-S SLP162 T02390222 58014
KCLT 251952Z 28006KT 10SM FEW032 BKN100 BKN250 25/23 A3005 RMK SLP167 T02500227

METAR Board
Radar Display
Forecast Discussion

FOR SITUATIONAL AWARENESS. NOT TO BE USED FOR FLIGHT PLANNING PURPOSES.